sensor_id;sensor_type;location;lat;lon;timestamp;P1;durP1;ratioP1;P2;durP2;ratioP2
15526;SDS011;7865;50.918;4.510;2024-02-04T00:04:30;13.63;;;11.07;;
15526;SDS011;7865;50.918;4.510;2024-02-04T00:09:33;16.87;;;11.07;;
15526;SDS011;7865;50.918;4.510;2024-02-04T00:14:37;16.63;;;10.77;;
15526;SDS011;7865;50.918;4.510;2024-02-04T00:19:38;15.30;;;10.60;;
15526;SDS011;7865;50.918;4.510;2024-02-04T00:24:40;23.07;;;11.67;;
15526;SDS011;7865;50.918;4.510;2024-02-04T00:29:41;18.43;;;10.60;;
15526;SDS011;7865;50.918;4.510;2024-02-04T00:34:42;17.23;;;10.10;;
15526;SDS011;7865;50.918;4.510;2024-02-04T00:39:43;18.00;;;9.40;;
15526;SDS011;7865;50.918;4.510;2024-02-04T00:44:45;13.37;;;9.33;;
15526;SDS011;7865;50.918;4.510;2024-02-04T00:49:46;12.73;;;8.40;;
15526;SDS011;7865;50.918;4.510;2024-02-04T00:54:48;10.33;;;8.47;;
15526;SDS011;7865;50.918;4.510;2024-02-04T00:59:49;16.03;;;8.50;;
15526;SDS011;7865;50.918;4.510;2024-02-04T01:04:53;13.47;;;8.67;;
15526;SDS011;7865;50.918;4.510;2024-02-04T01:09:54;11.10;;;8.50;;
15526;SDS011;7865;50.918;4.510;2024-02-04T01:14:55;14.60;;;7.87;;
15526;SDS011;7865;50.918;4.510;2024-02-04T01:19:57;15.77;;;9.00;;
15526;SDS011;7865;50.918;4.510;2024-02-04T01:24:58;13.60;;;8.90;;
15526;SDS011;7865;50.918;4.510;2024-02-04T01:29:59;12.90;;;8.33;;
15526;SDS011;7865;50.918;4.510;2024-02-04T01:35:00;10.83;;;7.67;;
15526;SDS011;7865;50.918;4.510;2024-02-04T01:40:02;13.33;;;7.67;;
15526;SDS011;7865;50.918;4.510;2024-02-04T01:45:03;11.80;;;8.80;;
15526;SDS011;7865;50.918;4.510;2024-02-04T01:50:05;13.37;;;7.73;;
15526;SDS011;7865;50.918;4.510;2024-02-04T01:55:07;17.67;;;7.83;;
15526;SDS011;7865;50.918;4.510;2024-02-04T02:00:08;12.87;;;8.80;;
15526;SDS011;7865;50.918;4.510;2024-02-04T02:05:11;13.47;;;8.10;;
15526;SDS011;7865;50.918;4.510;2024-02-04T02:10:13;16.83;;;9.03;;
15526;SDS011;7865;50.918;4.510;2024-02-04T02:15:15;13.33;;;9.57;;
15526;SDS011;7865;50.918;4.510;2024-02-04T02:20:23;16.10;;;10.30;;
15526;SDS011;7865;50.918;4.510;2024-02-04T02:25:31;19.87;;;11.00;;
15526;SDS011;7865;50.918;4.510;2024-02-04T02:30:34;15.93;;;10.87;;
15526;SDS011;7865;50.918;4.510;2024-02-04T02:35:35;19.10;;;10.83;;
15526;SDS011;7865;50.918;4.510;2024-02-04T02:40:42;20.37;;;11.27;;
15526;SDS011;7865;50.918;4.510;2024-02-04T02:45:48;20.57;;;11.40;;
15526;SDS011;7865;50.918;4.510;2024-02-04T02:50:49;18.73;;;12.27;;
15526;SDS011;7865;50.918;4.510;2024-02-04T02:55:50;22.57;;;12.43;;
15526;SDS011;7865;50.918;4.510;2024-02-04T03:00:52;23.47;;;12.27;;
15526;SDS011;7865;50.918;4.510;2024-02-04T03:05:53;23.70;;;12.07;;
15526;SDS011;7865;50.918;4.510;2024-02-04T03:10:54;18.73;;;12.97;;
15526;SDS011;7865;50.918;4.510;2024-02-04T03:15:56;20.67;;;12.33;;
15526;SDS011;7865;50.918;4.510;2024-02-04T03:20:58;19.90;;;12.80;;
15526;SDS011;7865;50.918;4.510;2024-02-04T03:25:59;27.37;;;13.33;;
15526;SDS011;7865;50.918;4.510;2024-02-04T03:31:01;24.47;;;12.93;;
15526;SDS011;7865;50.918;4.510;2024-02-04T03:36:03;24.57;;;12.27;;
15526;SDS011;7865;50.918;4.510;2024-02-04T03:41:04;17.07;;;10.73;;
15526;SDS011;7865;50.918;4.510;2024-02-04T03:46:05;21.97;;;11.20;;
15526;SDS011;7865;50.918;4.510;2024-02-04T03:51:07;15.13;;;10.47;;
15526;SDS011;7865;50.918;4.510;2024-02-04T03:56:08;24.10;;;11.67;;
15526;SDS011;7865;50.918;4.510;2024-02-04T04:01:10;23.00;;;11.63;;
15526;SDS011;7865;50.918;4.510;2024-02-04T04:06:12;19.47;;;12.00;;
15526;SDS011;7865;50.918;4.510;2024-02-04T04:11:14;28.87;;;11.97;;
15526;SDS011;7865;50.918;4.510;2024-02-04T04:16:15;18.83;;;10.40;;
15526;SDS011;7865;50.918;4.510;2024-02-04T04:21:22;18.07;;;10.13;;
15526;SDS011;7865;50.918;4.510;2024-02-04T04:26:23;18.57;;;10.53;;
15526;SDS011;7865;50.918;4.510;2024-02-04T04:31:24;19.90;;;10.67;;
15526;SDS011;7865;50.918;4.510;2024-02-04T04:36:25;14.80;;;9.77;;
15526;SDS011;7865;50.918;4.510;2024-02-04T04:41:27;14.97;;;9.57;;
15526;SDS011;7865;50.918;4.510;2024-02-04T04:46:28;18.63;;;9.63;;
15526;SDS011;7865;50.918;4.510;2024-02-04T04:51:29;21.53;;;10.27;;
15526;SDS011;7865;50.918;4.510;2024-02-04T04:56:30;18.57;;;9.23;;
15526;SDS011;7865;50.918;4.510;2024-02-04T05:01:49;13.10;;;8.07;;
15526;SDS011;7865;50.918;4.510;2024-02-04T05:06:51;16.20;;;8.53;;
15526;SDS011;7865;50.918;4.510;2024-02-04T05:11:52;14.17;;;7.80;;
15526;SDS011;7865;50.918;4.510;2024-02-04T05:16:53;16.67;;;6.87;;
15526;SDS011;7865;50.918;4.510;2024-02-04T05:21:56;10.70;;;6.30;;
15526;SDS011;7865;50.918;4.510;2024-02-04T05:26:57;9.87;;;6.30;;
15526;SDS011;7865;50.918;4.510;2024-02-04T05:31:58;9.60;;;6.23;;
15526;SDS011;7865;50.918;4.510;2024-02-04T05:36:59;12.47;;;7.00;;
15526;SDS011;7865;50.918;4.510;2024-02-04T05:42:01;17.80;;;7.97;;
15526;SDS011;7865;50.918;4.510;2024-02-04T05:47:02;15.63;;;8.43;;
15526;SDS011;7865;50.918;4.510;2024-02-04T05:52:04;19.50;;;9.20;;
15526;SDS011;7865;50.918;4.510;2024-02-04T05:57:06;24.77;;;10.20;;
15526;SDS011;7865;50.918;4.510;2024-02-04T06:02:07;21.37;;;10.70;;
15526;SDS011;7865;50.918;4.510;2024-02-04T06:07:08;20.57;;;10.53;;
15526;SDS011;7865;50.918;4.510;2024-02-04T06:12:10;28.27;;;11.63;;
15526;SDS011;7865;50.918;4.510;2024-02-04T06:17:11;26.90;;;11.97;;
15526;SDS011;7865;50.918;4.510;2024-02-04T06:22:13;25.00;;;10.83;;
15526;SDS011;7865;50.918;4.510;2024-02-04T06:27:15;29.60;;;13.47;;
15526;SDS011;7865;50.918;4.510;2024-02-04T06:32:17;36.53;;;16.17;;
15526;SDS011;7865;50.918;4.510;2024-02-04T06:37:21;37.10;;;17.07;;
15526;SDS011;7865;50.918;4.510;2024-02-04T06:42:22;41.70;;;22.47;;
15526;SDS011;7865;50.918;4.510;2024-02-04T06:47:23;31.47;;;16.17;;
15526;SDS011;7865;50.918;4.510;2024-02-04T06:52:24;34.57;;;17.47;;
15526;SDS011;7865;50.918;4.510;2024-02-04T06:57:25;20.57;;;12.83;;
15526;SDS011;7865;50.918;4.510;2024-02-04T07:02:27;20.07;;;11.47;;
15526;SDS011;7865;50.918;4.510;2024-02-04T07:07:28;18.97;;;9.53;;
15526;SDS011;7865;50.918;4.510;2024-02-04T07:12:29;18.27;;;9.23;;
15526;SDS011;7865;50.918;4.510;2024-02-04T07:17:30;24.57;;;14.03;;
15526;SDS011;7865;50.918;4.510;2024-02-04T07:22:31;17.37;;;10.20;;
15526;SDS011;7865;50.918;4.510;2024-02-04T07:27:37;20.03;;;10.30;;
15526;SDS011;7865;50.918;4.510;2024-02-04T07:32:38;19.37;;;10.83;;
15526;SDS011;7865;50.918;4.510;2024-02-04T07:37:40;24.60;;;12.27;;
15526;SDS011;7865;50.918;4.510;2024-02-04T07:42:41;24.87;;;12.10;;
15526;SDS011;7865;50.918;4.510;2024-02-04T07:47:42;24.43;;;13.10;;
15526;SDS011;7865;50.918;4.510;2024-02-04T07:52:43;26.20;;;13.27;;
15526;SDS011;7865;50.918;4.510;2024-02-04T07:57:45;26.33;;;13.40;;
15526;SDS011;7865;50.918;4.510;2024-02-04T08:02:47;30.97;;;13.33;;
15526;SDS011;7865;50.918;4.510;2024-02-04T08:07:48;23.33;;;12.47;;
15526;SDS011;7865;50.918;4.510;2024-02-04T08:12:49;20.83;;;11.77;;
15526;SDS011;7865;50.918;4.510;2024-02-04T08:17:53;23.53;;;10.50;;
15526;SDS011;7865;50.918;4.510;2024-02-04T08:22:54;19.63;;;9.63;;
15526;SDS011;7865;50.918;4.510;2024-02-04T08:27:55;20.47;;;8.47;;
15526;SDS011;7865;50.918;4.510;2024-02-04T08:32:59;17.07;;;8.17;;
15526;SDS011;7865;50.918;4.510;2024-02-04T08:38:02;14.73;;;7.20;;
15526;SDS011;7865;50.918;4.510;2024-02-04T08:43:03;14.73;;;7.97;;
15526;SDS011;7865;50.918;4.510;2024-02-04T08:48:04;13.20;;;8.10;;
15526;SDS011;7865;50.918;4.510;2024-02-04T08:53:06;14.50;;;8.87;;
15526;SDS011;7865;50.918;4.510;2024-02-04T08:58:07;12.43;;;8.80;;
15526;SDS011;7865;50.918;4.510;2024-02-04T09:03:08;16.07;;;9.03;;
15526;SDS011;7865;50.918;4.510;2024-02-04T09:08:10;18.27;;;10.27;;
15526;SDS011;7865;50.918;4.510;2024-02-04T09:13:11;14.93;;;8.80;;
15526;SDS011;7865;50.918;4.510;2024-02-04T09:18:13;15.67;;;8.70;;
15526;SDS011;7865;50.918;4.510;2024-02-04T09:23:14;12.10;;;6.60;;
15526;SDS011;7865;50.918;4.510;2024-02-04T09:28:15;11.87;;;5.87;;
15526;SDS011;7865;50.918;4.510;2024-02-04T09:33:17;11.83;;;6.03;;
15526;SDS011;7865;50.918;4.510;2024-02-04T09:38:19;12.93;;;6.23;;
15526;SDS011;7865;50.918;4.510;2024-02-04T09:43:21;10.23;;;5.53;;
15526;SDS011;7865;50.918;4.510;2024-02-04T09:48:23;12.93;;;6.00;;
15526;SDS011;7865;50.918;4.510;2024-02-04T09:53:32;9.80;;;5.55;;
15526;SDS011;7865;50.918;4.510;2024-02-04T09:58:35;10.05;;;5.72;;
15526;SDS011;7865;50.918;4.510;2024-02-04T10:03:37;11.13;;;4.85;;
15526;SDS011;7865;50.918;4.510;2024-02-04T10:08:38;12.63;;;5.22;;
15526;SDS011;7865;50.918;4.510;2024-02-04T10:13:46;9.87;;;4.53;;
15526;SDS011;7865;50.918;4.510;2024-02-04T10:18:49;8.93;;;4.18;;
15526;SDS011;7865;50.918;4.510;2024-02-04T10:23:50;11.48;;;3.97;;
15526;SDS011;7865;50.918;4.510;2024-02-04T10:28:52;13.23;;;4.40;;
15526;SDS011;7865;50.918;4.510;2024-02-04T10:33:54;10.45;;;4.45;;
15526;SDS011;7865;50.918;4.510;2024-02-04T10:38:57;9.25;;;4.57;;
15526;SDS011;7865;50.918;4.510;2024-02-04T10:43:58;8.27;;;4.32;;
15526;SDS011;7865;50.918;4.510;2024-02-04T10:49:00;13.70;;;4.70;;
15526;SDS011;7865;50.918;4.510;2024-02-04T10:54:04;9.20;;;4.65;;
15526;SDS011;7865;50.918;4.510;2024-02-04T10:59:07;11.43;;;5.03;;
15526;SDS011;7865;50.918;4.510;2024-02-04T11:04:12;8.23;;;4.28;;
15526;SDS011;7865;50.918;4.510;2024-02-04T11:09:15;6.28;;;3.25;;
15526;SDS011;7865;50.918;4.510;2024-02-04T11:14:18;6.10;;;3.75;;
15526;SDS011;7865;50.918;4.510;2024-02-04T11:19:32;8.15;;;3.70;;
15526;SDS011;7865;50.918;4.510;2024-02-04T11:30:05;4.40;;;2.95;;
15526;SDS011;7865;50.918;4.510;2024-02-04T11:35:07;7.18;;;2.95;;
15526;SDS011;7865;50.918;4.510;2024-02-04T11:40:13;7.20;;;2.88;;
15526;SDS011;7865;50.918;4.510;2024-02-04T11:45:16;6.10;;;3.00;;
15526;SDS011;7865;50.918;4.510;2024-02-04T11:50:25;4.78;;;2.38;;
15526;SDS011;7865;50.918;4.510;2024-02-04T11:55:30;7.60;;;2.55;;
15526;SDS011;7865;50.918;4.510;2024-02-04T12:00:33;7.93;;;2.70;;
15526;SDS011;7865;50.918;4.510;2024-02-04T12:05:37;6.45;;;2.55;;
15526;SDS011;7865;50.918;4.510;2024-02-04T12:10:41;5.88;;;2.60;;
15526;SDS011;7865;50.918;4.510;2024-02-04T12:15:43;5.63;;;2.22;;
15526;SDS011;7865;50.918;4.510;2024-02-04T12:20:46;2.92;;;2.00;;
15526;SDS011;7865;50.918;4.510;2024-02-04T12:25:49;3.40;;;2.10;;
15526;SDS011;7865;50.918;4.510;2024-02-04T12:30:54;5.80;;;2.05;;
15526;SDS011;7865;50.918;4.510;2024-02-04T12:35:59;7.45;;;2.50;;
15526;SDS011;7865;50.918;4.510;2024-02-04T12:41:02;5.00;;;2.05;;
15526;SDS011;7865;50.918;4.510;2024-02-04T12:46:04;7.88;;;2.72;;
15526;SDS011;7865;50.918;4.510;2024-02-04T12:51:05;4.90;;;2.28;;
15526;SDS011;7865;50.918;4.510;2024-02-04T12:56:06;8.57;;;2.63;;
15526;SDS011;7865;50.918;4.510;2024-02-04T13:01:07;4.00;;;2.08;;
15526;SDS011;7865;50.918;4.510;2024-02-04T13:06:09;4.95;;;1.90;;
15526;SDS011;7865;50.918;4.510;2024-02-04T13:11:10;3.55;;;2.00;;
15526;SDS011;7865;50.918;4.510;2024-02-04T13:16:12;4.35;;;1.80;;
15526;SDS011;7865;50.918;4.510;2024-02-04T13:21:13;6.45;;;4.10;;
15526;SDS011;7865;50.918;4.510;2024-02-04T13:26:14;7.53;;;4.90;;
15526;SDS011;7865;50.918;4.510;2024-02-04T13:31:16;4.38;;;3.40;;
15526;SDS011;7865;50.918;4.510;2024-02-04T13:36:18;2.35;;;2.08;;
15526;SDS011;7865;50.918;4.510;2024-02-04T13:41:19;3.88;;;2.30;;
15526;SDS011;7865;50.918;4.510;2024-02-04T13:46:20;2.58;;;1.83;;
15526;SDS011;7865;50.918;4.510;2024-02-04T13:51:21;2.40;;;1.73;;
15526;SDS011;7865;50.918;4.510;2024-02-04T13:56:37;2.50;;;1.58;;
15526;SDS011;7865;50.918;4.510;2024-02-04T14:01:38;1.98;;;1.73;;
15526;SDS011;7865;50.918;4.510;2024-02-04T14:06:39;3.15;;;2.20;;
15526;SDS011;7865;50.918;4.510;2024-02-04T14:11:40;5.50;;;3.00;;
15526;SDS011;7865;50.918;4.510;2024-02-04T14:16:42;5.07;;;2.80;;
15526;SDS011;7865;50.918;4.510;2024-02-04T14:21:43;8.18;;;3.55;;
15526;SDS011;7865;50.918;4.510;2024-02-04T14:26:45;7.03;;;3.22;;
15526;SDS011;7865;50.918;4.510;2024-02-04T14:31:46;5.70;;;3.53;;
15526;SDS011;7865;50.918;4.510;2024-02-04T14:36:47;5.80;;;2.75;;
15526;SDS011;7865;50.918;4.510;2024-02-04T14:41:49;7.47;;;2.50;;
15526;SDS011;7865;50.918;4.510;2024-02-04T14:46:50;7.85;;;3.50;;
15526;SDS011;7865;50.918;4.510;2024-02-04T14:51:51;8.40;;;3.22;;
15526;SDS011;7865;50.918;4.510;2024-02-04T14:56:52;6.97;;;3.80;;
15526;SDS011;7865;50.918;4.510;2024-02-04T15:01:54;7.32;;;3.15;;
15526;SDS011;7865;50.918;4.510;2024-02-04T15:06:55;7.97;;;2.97;;
15526;SDS011;7865;50.918;4.510;2024-02-04T15:11:57;7.40;;;2.70;;
15526;SDS011;7865;50.918;4.510;2024-02-04T15:16:59;7.47;;;2.70;;
15526;SDS011;7865;50.918;4.510;2024-02-04T15:22:02;5.35;;;2.65;;
15526;SDS011;7865;50.918;4.510;2024-02-04T15:27:04;12.82;;;3.10;;
15526;SDS011;7865;50.918;4.510;2024-02-04T15:32:07;7.80;;;3.10;;
15526;SDS011;7865;50.918;4.510;2024-02-04T15:37:08;11.73;;;3.15;;
15526;SDS011;7865;50.918;4.510;2024-02-04T15:42:11;10.27;;;2.88;;
15526;SDS011;7865;50.918;4.510;2024-02-04T15:47:12;7.60;;;2.97;;
15526;SDS011;7865;50.918;4.510;2024-02-04T15:52:14;6.88;;;3.30;;
15526;SDS011;7865;50.918;4.510;2024-02-04T15:57:15;10.20;;;3.20;;
15526;SDS011;7865;50.918;4.510;2024-02-04T16:02:21;8.90;;;2.87;;
15526;SDS011;7865;50.918;4.510;2024-02-04T16:07:22;6.95;;;3.28;;
15526;SDS011;7865;50.918;4.510;2024-02-04T16:12:24;11.60;;;3.20;;
15526;SDS011;7865;50.918;4.510;2024-02-04T16:17:25;14.07;;;4.27;;
15526;SDS011;7865;50.918;4.510;2024-02-04T16:22:28;8.45;;;3.85;;
15526;SDS011;7865;50.918;4.510;2024-02-04T16:27:30;9.00;;;3.63;;
15526;SDS011;7865;50.918;4.510;2024-02-04T16:32:31;13.48;;;3.95;;
15526;SDS011;7865;50.918;4.510;2024-02-04T16:37:32;9.80;;;2.92;;
15526;SDS011;7865;50.918;4.510;2024-02-04T16:42:34;9.50;;;3.40;;
15526;SDS011;7865;50.918;4.510;2024-02-04T16:47:36;9.73;;;3.38;;
15526;SDS011;7865;50.918;4.510;2024-02-04T16:52:37;7.63;;;3.53;;
15526;SDS011;7865;50.918;4.510;2024-02-04T16:57:38;9.40;;;3.40;;
15526;SDS011;7865;50.918;4.510;2024-02-04T17:02:39;11.50;;;3.90;;
15526;SDS011;7865;50.918;4.510;2024-02-04T17:07:42;12.00;;;3.83;;
15526;SDS011;7865;50.918;4.510;2024-02-04T17:12:43;10.00;;;3.42;;
15526;SDS011;7865;50.918;4.510;2024-02-04T17:17:46;9.50;;;3.50;;
15526;SDS011;7865;50.918;4.510;2024-02-04T17:22:51;11.90;;;3.53;;
15526;SDS011;7865;50.918;4.510;2024-02-04T17:27:59;12.13;;;3.70;;
15526;SDS011;7865;50.918;4.510;2024-02-04T17:33:04;14.87;;;4.80;;
15526;SDS011;7865;50.918;4.510;2024-02-04T17:38:06;11.53;;;3.57;;
15526;SDS011;7865;50.918;4.510;2024-02-04T17:43:09;9.73;;;3.97;;
15526;SDS011;7865;50.918;4.510;2024-02-04T17:48:11;7.63;;;4.17;;
15526;SDS011;7865;50.918;4.510;2024-02-04T17:53:14;10.90;;;3.80;;
15526;SDS011;7865;50.918;4.510;2024-02-04T17:58:15;16.23;;;4.10;;
15526;SDS011;7865;50.918;4.510;2024-02-04T18:03:16;9.07;;;3.47;;
15526;SDS011;7865;50.918;4.510;2024-02-04T18:08:18;13.60;;;3.83;;
15526;SDS011;7865;50.918;4.510;2024-02-04T18:13:19;12.33;;;4.17;;
15526;SDS011;7865;50.918;4.510;2024-02-04T18:18:21;17.53;;;4.27;;
15526;SDS011;7865;50.918;4.510;2024-02-04T18:23:22;19.30;;;5.30;;
15526;SDS011;7865;50.918;4.510;2024-02-04T18:28:23;12.63;;;4.20;;
15526;SDS011;7865;50.918;4.510;2024-02-04T18:33:24;16.40;;;5.23;;
15526;SDS011;7865;50.918;4.510;2024-02-04T18:38:26;15.00;;;4.37;;
15526;SDS011;7865;50.918;4.510;2024-02-04T18:43:27;14.27;;;4.67;;
15526;SDS011;7865;50.918;4.510;2024-02-04T18:48:28;17.77;;;5.23;;
15526;SDS011;7865;50.918;4.510;2024-02-04T18:53:30;14.73;;;4.37;;
15526;SDS011;7865;50.918;4.510;2024-02-04T18:58:32;16.73;;;4.47;;
15526;SDS011;7865;50.918;4.510;2024-02-04T19:03:34;13.97;;;4.33;;
15526;SDS011;7865;50.918;4.510;2024-02-04T19:08:36;14.83;;;4.53;;
15526;SDS011;7865;50.918;4.510;2024-02-04T19:13:37;13.03;;;4.90;;
15526;SDS011;7865;50.918;4.510;2024-02-04T19:18:38;12.60;;;4.90;;
15526;SDS011;7865;50.918;4.510;2024-02-04T19:23:40;17.97;;;5.70;;
15526;SDS011;7865;50.918;4.510;2024-02-04T19:28:42;15.87;;;4.63;;
15526;SDS011;7865;50.918;4.510;2024-02-04T19:33:43;14.93;;;5.40;;
15526;SDS011;7865;50.918;4.510;2024-02-04T19:38:44;16.43;;;5.00;;
15526;SDS011;7865;50.918;4.510;2024-02-04T19:43:46;12.03;;;5.10;;
15526;SDS011;7865;50.918;4.510;2024-02-04T19:48:47;18.57;;;5.60;;
15526;SDS011;7865;50.918;4.510;2024-02-04T19:53:48;13.73;;;5.77;;
15526;SDS011;7865;50.918;4.510;2024-02-04T19:58:50;14.47;;;5.10;;
15526;SDS011;7865;50.918;4.510;2024-02-04T20:03:51;17.30;;;5.37;;
15526;SDS011;7865;50.918;4.510;2024-02-04T20:08:53;13.80;;;4.80;;
15526;SDS011;7865;50.918;4.510;2024-02-04T20:13:55;15.20;;;5.97;;
15526;SDS011;7865;50.918;4.510;2024-02-04T20:18:57;16.83;;;5.17;;
15526;SDS011;7865;50.918;4.510;2024-02-04T20:23:58;11.23;;;4.97;;
15526;SDS011;7865;50.918;4.510;2024-02-04T20:28:59;18.83;;;5.20;;
15526;SDS011;7865;50.918;4.510;2024-02-04T20:34:01;11.90;;;5.97;;
15526;SDS011;7865;50.918;4.510;2024-02-04T20:39:09;18.17;;;5.67;;
15526;SDS011;7865;50.918;4.510;2024-02-04T20:44:12;14.07;;;5.50;;
15526;SDS011;7865;50.918;4.510;2024-02-04T20:49:14;14.93;;;5.53;;
15526;SDS011;7865;50.918;4.510;2024-02-04T20:54:15;18.87;;;6.17;;
15526;SDS011;7865;50.918;4.510;2024-02-04T20:59:17;17.13;;;6.17;;
15526;SDS011;7865;50.918;4.510;2024-02-04T21:04:20;17.47;;;5.90;;
15526;SDS011;7865;50.918;4.510;2024-02-04T21:09:21;21.13;;;5.83;;
15526;SDS011;7865;50.918;4.510;2024-02-04T21:14:23;22.77;;;5.93;;
15526;SDS011;7865;50.918;4.510;2024-02-04T21:19:24;21.93;;;5.93;;
15526;SDS011;7865;50.918;4.510;2024-02-04T21:24:25;17.87;;;6.60;;
15526;SDS011;7865;50.918;4.510;2024-02-04T21:29:26;22.00;;;5.93;;
15526;SDS011;7865;50.918;4.510;2024-02-04T21:34:28;18.13;;;6.17;;
15526;SDS011;7865;50.918;4.510;2024-02-04T21:39:29;20.58;;;6.05;;
15526;SDS011;7865;50.918;4.510;2024-02-04T21:44:31;19.70;;;5.55;;
15526;SDS011;7865;50.918;4.510;2024-02-04T21:49:32;16.80;;;5.90;;
15526;SDS011;7865;50.918;4.510;2024-02-04T21:54:33;20.10;;;6.17;;
15526;SDS011;7865;50.918;4.510;2024-02-04T21:59:35;17.80;;;5.83;;
15526;SDS011;7865;50.918;4.510;2024-02-04T22:04:37;17.47;;;6.03;;
15526;SDS011;7865;50.918;4.510;2024-02-04T22:09:38;26.63;;;5.60;;
15526;SDS011;7865;50.918;4.510;2024-02-04T22:14:39;29.25;;;6.65;;
15526;SDS011;7865;50.918;4.510;2024-02-04T22:19:40;18.50;;;5.65;;
15526;SDS011;7865;50.918;4.510;2024-02-04T22:24:45;19.17;;;5.67;;
15526;SDS011;7865;50.918;4.510;2024-02-04T22:29:47;26.93;;;5.83;;
15526;SDS011;7865;50.918;4.510;2024-02-04T22:34:48;30.07;;;5.90;;
15526;SDS011;7865;50.918;4.510;2024-02-04T22:39:50;19.57;;;5.90;;
15526;SDS011;7865;50.918;4.510;2024-02-04T22:44:51;22.33;;;5.47;;
15526;SDS011;7865;50.918;4.510;2024-02-04T22:49:52;23.77;;;5.77;;
15526;SDS011;7865;50.918;4.510;2024-02-04T22:54:54;22.50;;;5.40;;
15526;SDS011;7865;50.918;4.510;2024-02-04T22:59:55;24.43;;;5.37;;
15526;SDS011;7865;50.918;4.510;2024-02-04T23:04:57;23.20;;;6.00;;
15526;SDS011;7865;50.918;4.510;2024-02-04T23:09:58;28.63;;;6.37;;
15526;SDS011;7865;50.918;4.510;2024-02-04T23:14:59;19.80;;;5.57;;
15526;SDS011;7865;50.918;4.510;2024-02-04T23:20:01;25.67;;;5.77;;
15526;SDS011;7865;50.918;4.510;2024-02-04T23:25:08;20.05;;;5.97;;
15526;SDS011;7865;50.918;4.510;2024-02-04T23:30:10;23.80;;;5.57;;
15526;SDS011;7865;50.918;4.510;2024-02-04T23:35:11;21.37;;;6.10;;
15526;SDS011;7865;50.918;4.510;2024-02-04T23:40:12;25.27;;;5.97;;
15526;SDS011;7865;50.918;4.510;2024-02-04T23:45:14;22.27;;;6.20;;
15526;SDS011;7865;50.918;4.510;2024-02-04T23:50:16;18.63;;;5.00;;
15526;SDS011;7865;50.918;4.510;2024-02-04T23:55:20;21.07;;;5.90;;
